createdAt,value
2023-01-26T00:01:27.765Z,97999.38
2023-01-26T00:03:55.029Z,97994.94
2023-01-26T00:06:23.048Z,97999.13
2023-01-26T00:08:53.895Z,97988.75
2023-01-26T00:11:29.931Z,97980.63
2023-01-26T00:13:59.059Z,97990.03
2023-01-26T00:16:27.012Z,97980.88
2023-01-26T00:18:54.719Z,97982.34
2023-01-26T00:21:23.733Z,97982.34
2023-01-26T00:23:52.086Z,97985.22
2023-01-26T00:26:25.263Z,97977.81
2023-01-26T00:28:53.279Z,97967.59
2023-01-26T00:31:26.154Z,97966.00
2023-01-26T00:33:55.483Z,97955.56
2023-01-26T00:36:23.227Z,97956.44
2023-01-26T00:38:50.137Z,97953.00
2023-01-26T00:41:35.442Z,97954.81
2023-01-26T00:44:02.576Z,97952.38
2023-01-26T00:46:29.950Z,97959.63
2023-01-26T00:48:57.323Z,97958.19
2023-01-26T00:51:24.776Z,97963.38
2023-01-26T00:53:51.717Z,97962.34
2023-01-26T00:56:18.936Z,97961.78
2023-01-26T00:58:46.959Z,97958.47
2023-01-26T01:01:14.071Z,97959.91
2023-01-26T01:03:52.357Z,97951.25
2023-01-26T01:06:19.793Z,97953.94
2023-01-26T01:08:47.240Z,97939.22
2023-01-26T01:11:14.847Z,97934.78
2023-01-26T01:13:42.338Z,97937.84
2023-01-26T01:16:13.941Z,97936.00
2023-01-26T01:18:42.550Z,97927.50
2023-01-26T01:21:13.137Z,97934.44
2023-01-26T01:23:41.641Z,97936.25
2023-01-26T01:26:09.730Z,97927.44
2023-01-26T01:28:41.283Z,97920.31
2023-01-26T01:31:14.291Z,97906.09
2023-01-26T01:33:42.728Z,97906.97
2023-01-26T01:36:20.187Z,97906.81
2023-01-26T01:38:48.396Z,97909.50
2023-01-26T01:41:19.565Z,97900.06
2023-01-26T01:43:48.164Z,97899.34
2023-01-26T01:46:22.639Z,97891.63
2023-01-26T01:48:59.967Z,97895.56
2023-01-26T01:51:34.631Z,97891.06
2023-01-26T01:54:11.183Z,97884.13
2023-01-26T01:56:45.503Z,97887.38
2023-01-26T01:59:14.716Z,97887.06
2023-01-26T02:01:42.907Z,97888.00
2023-01-26T02:04:14.335Z,97881.78
2023-01-26T02:06:45.166Z,97880.97
2023-01-26T02:09:34.097Z,97873.22
2023-01-26T02:12:15.062Z,97866.25
2023-01-26T02:14:43.122Z,97881.66
2023-01-26T02:17:12.966Z,97862.88
2023-01-26T02:20:14.939Z,97863.66
2023-01-26T02:22:54.757Z,97854.09
2023-01-26T02:25:44.462Z,97847.34
2023-01-26T02:28:21.996Z,97845.88
2023-01-26T02:30:51.551Z,97851.06
2023-01-26T02:33:21.211Z,97845.22
2023-01-26T02:35:49.687Z,97844.66
2023-01-26T02:38:20.069Z,97840.38
2023-01-26T02:40:56.043Z,97824.81
2023-01-26T02:43:27.168Z,97831.59
2023-01-26T02:45:56.829Z,97827.31
2023-01-26T02:48:46.258Z,97823.75
2023-01-26T02:51:15.163Z,97835.44
2023-01-26T02:53:52.358Z,97825.19
2023-01-26T02:56:27.805Z,97823.63
2023-01-26T02:58:59.483Z,97823.13
2023-01-26T03:05:09.824Z,97816.06
2023-01-26T03:07:28.192Z,97814.97
2023-01-26T03:10:02.764Z,97819.09
2023-01-26T03:12:37.263Z,97812.09
2023-01-26T03:15:26.345Z,97812.72
2023-01-26T03:18:37.072Z,97810.56
2023-01-26T03:21:34.485Z,97799.88
2023-01-26T03:24:33.071Z,97792.22
2023-01-26T03:27:20.629Z,97791.44
2023-01-26T03:29:48.527Z,97788.19
2023-01-26T03:32:15.988Z,97788.19
2023-01-26T03:34:44.739Z,97773.88
2023-01-26T03:37:26.363Z,97790.00
2023-01-26T03:43:31.915Z,97777.72
2023-01-26T03:46:18.118Z,97773.38
2023-01-26T03:49:17.998Z,97771.09
2023-01-26T03:52:08.494Z,97766.03
2023-01-26T03:54:58.212Z,97774.50
2023-01-26T04:00:08.975Z,97767.97
2023-01-26T04:02:56.124Z,97768.75
2023-01-26T04:05:48.319Z,97755.81
2023-01-26T04:08:24.510Z,97755.47
2023-01-26T04:10:55.434Z,97759.13
2023-01-26T04:13:42.708Z,97759.09
2023-01-26T04:16:29.581Z,97757.16
2023-01-26T04:19:15.171Z,97750.28
2023-01-26T04:21:41.974Z,97748.72
2023-01-26T04:24:16.654Z,97736.69
2023-01-26T04:26:44.371Z,97740.97
2023-01-26T04:29:15.227Z,97739.03
2023-01-26T04:31:43.126Z,97745.84
2023-01-26T04:34:14.392Z,97742.22
2023-01-26T04:36:42.568Z,97732.00
2023-01-26T04:39:09.848Z,97727.53
2023-01-26T04:41:36.803Z,97722.38
2023-01-26T04:44:03.943Z,97709.50
2023-01-26T04:46:31.091Z,97703.72
2023-01-26T04:48:58.033Z,97708.84
2023-01-26T04:51:25.189Z,97712.41
2023-01-26T04:53:52.653Z,97711.41
2023-01-26T04:56:27.209Z,97717.69
2023-01-26T04:58:55.363Z,97719.59
2023-01-26T05:01:22.731Z,97718.03
2023-01-26T05:03:49.603Z,97714.44
2023-01-26T05:06:17.259Z,97707.78
2023-01-26T05:08:44.257Z,97713.66
2023-01-26T05:11:14.707Z,97711.91
2023-01-26T05:13:42.364Z,97700.72
2023-01-26T05:16:10.003Z,97709.53
2023-01-26T05:18:37.211Z,97703.56
2023-01-26T05:21:04.061Z,97708.72
2023-01-26T05:23:30.806Z,97700.97
2023-01-26T05:25:57.565Z,97702.63
2023-01-26T05:28:24.555Z,97691.34
2023-01-26T05:30:51.416Z,97692.19
2023-01-26T05:33:25.871Z,97692.19
2023-01-26T05:35:54.829Z,97683.78
2023-01-26T05:38:27.156Z,97676.22
2023-01-26T05:40:54.333Z,97673.91
2023-01-26T05:43:21.725Z,97686.72
2023-01-26T05:45:55.848Z,97684.13
2023-01-26T05:48:30.430Z,97680.50
2023-01-26T05:51:00.435Z,97669.44
2023-01-26T05:53:28.723Z,97672.91
2023-01-26T05:55:55.457Z,97663.31
2023-01-26T05:58:22.716Z,97668.38
2023-01-26T06:00:49.520Z,97670.06
2023-01-26T06:03:16.577Z,97671.88
2023-01-26T06:05:43.323Z,97661.66
2023-01-26T06:08:10.138Z,97658.03
2023-01-26T06:10:37.344Z,97651.84
2023-01-26T06:13:04.177Z,97653.34
2023-01-26T06:15:32.852Z,97642.13
2023-01-26T06:18:01.670Z,97630.50
2023-01-26T06:20:28.365Z,97632.16
2023-01-26T06:22:59.683Z,97630.34
2023-01-26T06:25:26.601Z,97628.44
2023-01-26T06:27:57.970Z,97624.81
2023-01-26T06:30:24.748Z,97622.88
2023-01-26T06:32:51.663Z,97621.88
2023-01-26T06:35:18.482Z,97617.97
2023-01-26T06:37:49.883Z,97619.53
2023-01-26T06:40:17.182Z,97614.34
2023-01-26T06:42:51.028Z,97616.03
2023-01-26T06:45:20.738Z,97615.78
2023-01-26T06:47:53.359Z,97607.03
2023-01-26T06:50:26.680Z,97606.41
2023-01-26T06:57:35.606Z,97613.25
2023-01-26T07:00:03.585Z,97615.00
2023-01-26T07:02:32.764Z,97615.78
2023-01-26T07:05:02.656Z,97611.38
2023-01-26T07:07:29.332Z,97610.63
2023-01-26T07:09:56.319Z,97610.75
2023-01-26T07:12:23.541Z,97607.31
2023-01-26T07:14:52.196Z,97599.75
2023-01-26T07:17:19.426Z,97600.63
2023-01-26T07:19:46.418Z,97590.56
2023-01-26T07:22:24.814Z,97605.44
2023-01-26T07:24:51.551Z,97589.91
2023-01-26T07:31:53.107Z,97566.56
2023-01-26T07:34:43.057Z,97569.53
2023-01-26T07:44:39.631Z,97563.41
2023-01-26T07:47:06.494Z,97561.19
2023-01-26T07:49:35.076Z,97564.25
2023-01-26T07:52:04.471Z,97565.81
2023-01-26T07:54:31.565Z,97557.78
2023-01-26T07:56:58.577Z,97557.47
2023-01-26T07:59:25.495Z,97545.59
2023-01-26T08:01:53.052Z,97545.59
2023-01-26T08:04:20.041Z,97556.44
2023-01-26T08:06:46.844Z,97555.41
2023-01-26T08:09:13.665Z,97547.34
2023-01-26T08:11:41.457Z,97547.63
2023-01-26T08:14:15.939Z,97547.75
2023-01-26T08:16:43.448Z,97545.63
2023-01-26T08:19:13.827Z,97540.50
2023-01-26T08:21:40.699Z,97536.81
2023-01-26T08:24:07.797Z,97546.78
2023-01-26T08:26:34.622Z,97552.25
2023-01-26T08:29:01.318Z,97552.38
2023-01-26T08:31:28.494Z,97549.03
2023-01-26T08:33:56.482Z,97544.97
2023-01-26T08:36:23.285Z,97552.34
2023-01-26T08:38:51.253Z,97554.19
2023-01-26T08:41:17.924Z,97539.09
2023-01-26T08:43:44.815Z,97532.09
2023-01-26T08:46:11.703Z,97530.22
2023-01-26T08:48:38.729Z,97525.91
2023-01-26T08:51:07.206Z,97517.00
2023-01-26T08:53:35.874Z,97517.47
2023-01-26T08:56:03.846Z,97519.69
2023-01-26T08:58:30.563Z,97523.59
2023-01-26T09:00:57.505Z,97516.41
2023-01-26T09:03:24.287Z,97522.84
2023-01-26T09:05:50.980Z,97522.06
2023-01-26T09:08:17.637Z,97521.28
2023-01-26T09:10:45.306Z,97508.66
2023-01-26T09:13:12.104Z,97516.34
2023-01-26T09:15:39.142Z,97502.63
2023-01-26T09:18:05.985Z,97501.81
2023-01-26T09:20:32.818Z,97498.78
2023-01-26T09:22:59.507Z,97504.84
2023-01-26T09:25:26.274Z,97491.34
2023-01-26T09:27:52.929Z,97488.91
2023-01-26T09:30:19.654Z,97490.31
2023-01-26T09:32:46.350Z,97483.66
2023-01-26T09:35:14.811Z,97473.94
2023-01-26T09:37:44.199Z,97467.50
2023-01-26T09:40:33.823Z,97465.78
2023-01-26T09:43:08.379Z,97474.06
2023-01-26T09:46:07.396Z,97472.34
2023-01-26T09:48:50.684Z,97461.00
2023-01-26T09:51:19.841Z,97454.56
2023-01-26T09:54:05.127Z,97444.34
2023-01-26T09:56:35.367Z,97440.81
2023-01-26T09:59:14.091Z,97430.13
2023-01-26T10:01:46.320Z,97430.13
2023-01-26T10:04:39.332Z,97427.81
2023-01-26T10:07:12.131Z,97431.13
2023-01-26T10:09:41.897Z,97426.22
2023-01-26T10:12:23.402Z,97420.28
2023-01-26T10:14:52.854Z,97415.63
2023-01-26T10:17:27.171Z,97410.88
2023-01-26T10:20:32.236Z,97413.72
2023-01-26T10:23:12.445Z,97409.94
2023-01-26T10:25:41.685Z,97413.84
2023-01-26T10:28:19.356Z,97399.41
2023-01-26T10:30:47.794Z,97391.41
2023-01-26T10:33:26.496Z,97384.72
2023-01-26T10:35:53.920Z,97377.28
2023-01-26T10:38:47.402Z,97358.50
2023-01-26T10:41:13.998Z,97370.03
2023-01-26T10:43:54.353Z,97366.97
2023-01-26T10:46:28.939Z,97367.06
2023-01-26T10:49:01.420Z,97356.06
2023-01-26T10:51:33.356Z,97351.63
2023-01-26T10:54:19.321Z,97343.81
2023-01-26T10:56:49.351Z,97340.38
2023-01-26T10:59:27.625Z,97330.69
2023-01-26T11:02:19.510Z,97335.41
2023-01-26T11:05:33.667Z,97326.03
2023-01-26T11:08:02.340Z,97307.16
2023-01-26T11:10:51.275Z,97306.28
2023-01-26T11:13:20.408Z,97303.41
2023-01-26T11:16:17.351Z,97299.47
2023-01-26T11:19:04.944Z,97282.97
2023-01-26T11:21:51.668Z,97290.09
2023-01-26T11:24:56.646Z,97274.25
2023-01-26T11:27:54.008Z,97278.00
2023-01-26T11:30:44.103Z,97270.63
2023-01-26T11:33:20.854Z,97265.41
2023-01-26T11:39:46.566Z,97258.25
2023-01-26T11:42:38.499Z,97258.16
2023-01-26T11:45:20.042Z,97250.97
2023-01-26T11:47:58.564Z,97260.47
2023-01-26T11:50:35.072Z,97250.97
2023-01-26T11:53:30.940Z,97247.00
2023-01-26T11:56:03.396Z,97251.19
2023-01-26T11:58:37.058Z,97256.41
2023-01-26T12:01:13.632Z,97251.19
2023-01-26T12:03:44.380Z,97262.72
2023-01-26T12:06:25.283Z,97256.44
2023-01-26T12:09:33.506Z,97260.44
2023-01-26T12:12:24.453Z,97267.53
2023-01-26T12:14:59.823Z,97274.34
2023-01-26T12:17:52.998Z,97256.88
2023-01-26T12:20:36.139Z,97249.34
2023-01-26T12:23:09.995Z,97257.44
2023-01-26T12:25:52.610Z,97252.41
2023-01-26T12:28:26.922Z,97251.00
2023-01-26T12:30:59.367Z,97241.81
2023-01-26T12:33:26.290Z,97238.56
2023-01-26T12:36:17.918Z,97245.34
2023-01-26T12:39:03.249Z,97242.16
2023-01-26T12:41:59.947Z,97236.22
2023-01-26T12:44:40.756Z,97237.16
2023-01-26T12:47:25.339Z,97242.91
2023-01-26T12:50:09.860Z,97228.81
2023-01-26T12:52:58.970Z,97216.56
2023-01-26T12:55:34.851Z,97217.75
2023-01-26T12:58:12.580Z,97213.22
2023-01-26T13:00:40.241Z,97216.38
2023-01-26T13:03:18.761Z,97218.13
2023-01-26T13:06:14.606Z,97200.31
2023-01-26T13:08:51.684Z,97209.50
2023-01-26T13:11:40.212Z,97197.91
2023-01-26T13:14:41.975Z,97205.06
2023-01-26T13:17:17.669Z,97197.81
2023-01-26T13:19:44.344Z,97199.47
2023-01-26T13:22:26.156Z,97199.47
2023-01-26T13:24:55.881Z,97197.06
2023-01-26T13:27:40.211Z,97196.16
2023-01-26T13:30:29.514Z,97188.59
2023-01-26T13:33:25.517Z,97190.66
2023-01-26T13:35:54.651Z,97172.09
2023-01-26T13:38:29.271Z,97165.88
2023-01-26T13:40:56.236Z,97180.63
2023-01-26T13:43:53.183Z,97185.91
2023-01-26T13:46:24.299Z,97177.19
2023-01-26T13:48:55.992Z,97175.16
2023-01-26T13:51:28.439Z,97172.00
2023-01-26T13:54:03.888Z,97168.38
2023-01-26T13:56:39.467Z,97152.69
2023-01-26T13:59:09.154Z,97151.84
2023-01-26T14:01:59.769Z,97151.41
2023-01-26T14:04:30.747Z,97152.69
2023-01-26T14:07:05.968Z,97143.59
2023-01-26T14:09:41.774Z,97146.28
2023-01-26T14:12:18.989Z,97140.25
2023-01-26T14:14:51.100Z,97133.94
2023-01-26T14:17:48.818Z,97139.22
2023-01-26T14:20:24.396Z,97128.91
2023-01-26T14:23:13.879Z,97131.13
2023-01-26T14:25:58.801Z,97134.84
2023-01-26T14:28:32.128Z,97118.78
2023-01-26T14:31:11.172Z,97127.31
2023-01-26T14:33:38.382Z,97106.25
2023-01-26T14:36:05.816Z,97102.72
2023-01-26T14:38:50.498Z,97106.72
2023-01-26T14:41:23.572Z,97103.13
2023-01-26T14:43:57.983Z,97094.84
2023-01-26T14:46:45.253Z,97100.78
2023-01-26T14:49:18.011Z,97094.94
2023-01-26T14:51:46.400Z,97078.16
2023-01-26T14:54:25.685Z,97088.44
2023-01-26T14:56:52.930Z,97081.50
2023-01-26T14:59:28.236Z,97068.59
2023-01-26T15:02:16.243Z,97073.59
2023-01-26T15:05:00.110Z,97077.31
2023-01-26T15:07:39.829Z,97073.41
2023-01-26T15:10:38.153Z,97068.03
2023-01-26T15:13:12.585Z,97062.47
2023-01-26T15:15:54.951Z,97047.59
2023-01-26T15:18:23.213Z,97047.78
2023-01-26T15:21:02.956Z,97057.06
2023-01-26T15:23:33.484Z,97053.19
2023-01-26T15:26:34.183Z,97052.06
2023-01-26T15:29:14.493Z,97047.97
2023-01-26T15:31:44.737Z,97038.78
2023-01-26T15:34:35.076Z,97051.47
2023-01-26T15:37:04.699Z,97051.31
2023-01-26T15:39:31.599Z,97046.13
2023-01-26T15:42:03.581Z,97040.00
2023-01-26T15:44:30.638Z,97040.94
2023-01-26T15:47:00.221Z,97044.28
2023-01-26T15:49:28.341Z,97039.28
2023-01-26T15:51:55.479Z,97049.66
2023-01-26T15:54:29.787Z,97044.47
2023-01-26T15:57:01.612Z,97039.22
2023-01-26T15:59:28.484Z,97023.13
2023-01-26T16:01:56.497Z,97028.69
2023-01-26T16:04:23.410Z,97030.06
2023-01-26T16:06:50.157Z,97034.59
2023-01-26T16:09:17.072Z,97022.91
2023-01-26T16:11:48.626Z,97024.59
2023-01-26T16:14:17.635Z,97026.59
2023-01-26T16:16:44.969Z,97023.19
2023-01-26T16:19:20.594Z,97021.41
2023-01-26T16:21:53.293Z,97005.84
2023-01-26T16:24:20.187Z,97013.75
2023-01-26T16:26:47.018Z,97014.84
2023-01-26T16:29:13.917Z,97007.72
2023-01-26T16:31:41.666Z,97006.78
2023-01-26T16:34:10.387Z,97006.97
2023-01-26T16:36:37.194Z,97005.84
2023-01-26T16:39:04.037Z,97002.53
2023-01-26T16:41:32.861Z,96999.09
2023-01-26T16:44:01.200Z,97001.28
2023-01-26T16:46:29.342Z,97002.72
2023-01-26T16:48:56.563Z,96990.84
2023-01-26T16:51:26.916Z,96997.69
2023-01-26T16:53:54.619Z,96992.50
2023-01-26T16:56:22.320Z,96993.44
2023-01-26T16:58:49.363Z,96978.31
2023-01-26T17:01:21.563Z,96987.66
2023-01-26T17:07:39.336Z,96988.22
2023-01-26T17:10:06.614Z,96980.44
2023-01-26T17:12:33.317Z,96975.53
2023-01-26T17:15:00.161Z,96977.00
2023-01-26T17:17:26.918Z,96966.31
2023-01-26T17:19:53.657Z,96966.50
2023-01-26T17:22:20.399Z,96963.06
2023-01-26T17:24:47.152Z,96969.25
2023-01-26T17:27:14.106Z,96969.09
2023-01-26T17:29:42.370Z,96966.31
2023-01-26T17:36:01.476Z,96966.16
2023-01-26T17:38:28.460Z,96946.97
2023-01-26T17:40:59.418Z,96958.81
2023-01-26T17:43:26.904Z,96953.03
2023-01-26T17:46:11.712Z,96967.31
2023-01-26T17:48:39.307Z,96964.22
2023-01-26T17:51:10.348Z,96949.84
2023-01-26T17:53:38.924Z,96945.94
2023-01-26T17:56:08.564Z,96937.97
2023-01-26T17:58:36.294Z,96915.75
2023-01-26T18:01:03.411Z,96943.94
2023-01-26T18:03:30.076Z,96938.91
2023-01-26T18:05:58.070Z,96930.56
2023-01-26T18:08:25.161Z,96926.47
2023-01-26T18:11:03.445Z,96918.13
2023-01-26T18:13:32.059Z,96922.03
2023-01-26T18:16:00.038Z,96920.56
2023-01-26T18:18:27.829Z,96915.38
2023-01-26T18:20:55.164Z,96924.75
2023-01-26T18:23:24.562Z,96918.09
2023-01-26T18:25:51.632Z,96919.56
2023-01-26T18:28:18.652Z,96914.41
2023-01-26T18:30:45.819Z,96902.53
2023-01-26T18:33:12.873Z,96908.38
2023-01-26T18:35:40.811Z,96903.38
2023-01-26T18:38:07.711Z,96904.88
2023-01-26T18:40:34.603Z,96903.81
2023-01-26T18:43:01.828Z,96897.69
2023-01-26T18:45:28.892Z,96897.53
2023-01-26T18:47:56.088Z,96885.91
2023-01-26T18:50:23.273Z,96885.81
2023-01-26T18:52:51.248Z,96888.66
2023-01-26T18:55:17.906Z,96883.47
2023-01-26T18:57:44.979Z,96879.13
2023-01-26T19:00:14.145Z,96877.63
2023-01-26T19:02:41.214Z,96870.31
2023-01-26T19:05:08.623Z,96874.75
2023-01-26T19:07:35.757Z,96863.28
2023-01-26T19:10:05.119Z,96851.63
2023-01-26T19:12:32.592Z,96861.25
2023-01-26T19:14:59.560Z,96839.38
2023-01-26T19:17:26.629Z,96835.19
2023-01-26T19:19:53.523Z,96829.44
2023-01-26T19:22:20.799Z,96825.16
2023-01-26T19:24:47.799Z,96824.44
2023-01-26T19:27:14.863Z,96830.28
2023-01-26T19:29:42.100Z,96831.63
2023-01-26T19:32:09.181Z,96815.53
2023-01-26T19:34:36.154Z,96813.31
2023-01-26T19:37:03.462Z,96815.19
2023-01-26T19:39:31.516Z,96814.34
2023-01-26T19:41:58.687Z,96816.06
2023-01-26T19:44:26.231Z,96811.47
2023-01-26T19:46:54.697Z,96827.69
2023-01-26T19:49:22.072Z,96819.81
2023-01-26T19:51:49.692Z,96805.03
2023-01-26T19:54:16.659Z,96808.34
2023-01-26T19:56:43.765Z,96805.75
2023-01-26T19:59:12.979Z,96804.91
2023-01-26T20:01:39.998Z,96796.13
2023-01-26T20:04:11.607Z,96805.81
2023-01-26T20:06:39.080Z,96795.09
2023-01-26T20:09:08.262Z,96792.97
2023-01-26T20:11:35.849Z,96789.44
2023-01-26T20:14:11.137Z,96794.28
2023-01-26T20:16:38.506Z,96792.38
2023-01-26T20:19:05.747Z,96784.72
2023-01-26T20:21:33.232Z,96783.78
2023-01-26T20:24:05.538Z,96791.38
2023-01-26T20:26:34.673Z,96787.59
2023-01-26T20:29:01.844Z,96771.28
2023-01-26T20:31:29.254Z,96779.81
2023-01-26T20:33:56.743Z,96770.94
2023-01-26T20:36:26.504Z,96776.63
2023-01-26T20:38:54.535Z,96773.13
2023-01-26T20:41:22.703Z,96771.13
2023-01-26T20:43:59.094Z,96764.28
2023-01-26T20:46:29.677Z,96761.44
2023-01-26T20:48:57.359Z,96769.03
2023-01-26T20:51:29.373Z,96757.59
2023-01-26T20:53:57.861Z,96763.69
2023-01-26T20:56:25.214Z,96751.69
2023-01-26T20:58:53.542Z,96749.84
2023-01-26T21:01:21.407Z,96749.84
2023-01-26T21:03:48.420Z,96739.03
2023-01-26T21:06:18.613Z,96739.31
2023-01-26T21:08:46.358Z,96736.81
2023-01-26T21:11:15.774Z,96739.31
2023-01-26T21:13:43.346Z,96737.19
2023-01-26T21:16:13.207Z,96733.19
2023-01-26T21:18:40.403Z,96730.25
2023-01-26T21:21:09.023Z,96733.19
2023-01-26T21:23:36.105Z,96723.19
2023-01-26T21:26:06.025Z,96714.00
2023-01-26T21:28:33.477Z,96725.78
2023-01-26T21:31:03.038Z,96728.38
2023-01-26T21:33:31.345Z,96715.41
2023-01-26T21:36:04.073Z,96722.22
2023-01-26T21:38:32.982Z,96711.88
2023-01-26T21:41:25.931Z,96715.78
2023-01-26T21:44:15.689Z,96703.75
2023-01-26T21:46:44.937Z,96709.00
2023-01-26T21:49:13.051Z,96701.81
2023-01-26T21:51:59.248Z,96693.03
2023-01-26T21:54:26.819Z,96680.28
2023-01-26T21:56:53.573Z,96687.69
2023-01-26T21:59:20.526Z,96684.16
2023-01-26T22:01:50.024Z,96666.75
2023-01-26T22:04:19.821Z,96673.63
2023-01-26T22:06:46.682Z,96670.28
2023-01-26T22:09:15.283Z,96669.53
2023-01-26T22:11:42.196Z,96660.41
2023-01-26T22:14:14.541Z,96664.56
2023-01-26T22:16:41.653Z,96676.00
2023-01-26T22:19:12.476Z,96675.63
2023-01-26T22:21:39.247Z,96667.16
2023-01-26T22:24:07.750Z,96662.88
2023-01-26T22:26:36.954Z,96645.31
2023-01-26T22:29:05.144Z,96649.91
2023-01-26T22:31:33.142Z,96639.47
2023-01-26T22:34:01.937Z,96635.44
2023-01-26T22:36:29.521Z,96631.63
2023-01-26T22:38:56.759Z,96625.16
2023-01-26T22:41:26.307Z,96627.94
2023-01-26T22:43:55.237Z,96622.19
2023-01-26T22:46:23.917Z,96617.03
2023-01-26T22:48:51.658Z,96607.56
2023-01-26T22:51:24.914Z,96602.38
2023-01-26T22:53:53.473Z,96601.00
2023-01-26T22:56:21.035Z,96596.13
2023-01-26T22:58:58.140Z,96608.22
2023-01-26T23:01:31.912Z,96601.84
2023-01-26T23:03:59.825Z,96592.25
2023-01-26T23:06:26.636Z,96592.91
2023-01-26T23:08:54.321Z,96596.22
2023-01-26T23:11:27.351Z,96588.34
2023-01-26T23:13:56.128Z,96581.06
2023-01-26T23:16:24.119Z,96588.34
2023-01-26T23:18:52.788Z,96583.84
2023-01-26T23:21:20.028Z,96576.72
2023-01-26T23:23:46.910Z,96570.41
2023-01-26T23:26:14.321Z,96560.78
2023-01-26T23:28:43.453Z,96560.41
2023-01-26T23:31:12.034Z,96557.34
2023-01-26T23:33:39.600Z,96555.88
2023-01-26T23:36:08.460Z,96557.16
2023-01-26T23:38:35.876Z,96549.78
2023-01-26T23:41:02.994Z,96555.59
2023-01-26T23:43:29.777Z,96557.84
2023-01-26T23:45:57.013Z,96567.06
2023-01-26T23:48:25.071Z,96560.34
2023-01-26T23:50:58.676Z,96555.59
2023-01-26T23:53:25.907Z,96550.66
2023-01-26T23:55:52.717Z,96554.59
2023-01-26T23:58:19.929Z,96545.09
